Time;durP1;ratioP1;P1;durP2;ratioP2;P2;SDS_P1;SDS_P2;PMS_P1;PMS_P2;Temp;Humidity;BMP_temperature;BMP_pressure;BME280_temperature;BME280_humidity;BME280_pressure;Samples;Min_cycle;Max_cycle;Signal;HPM_P1;HPM_P2
2023/12/31 00:01:04;;;;;;;191.17;37.93;;;-3.00;99.90;;;;;;4192512;28;20281;-55
2023/12/31 00:03:05;;;;;;;253.97;43.93;;;-3.00;99.90;;;;;;4194041;28;20653;-58
2023/12/31 00:05:06;;;;;;;350.00;42.60;;;-3.00;99.90;;;;;;4192136;28;20281;-59
2023/12/31 00:07:08;;;;;;;268.77;38.63;;;-3.00;99.90;;;;;;4193360;28;20304;-53
2023/12/31 00:09:09;;;;;;;317.83;44.07;;;-3.00;99.90;;;;;;4193648;28;20834;-58
2023/12/31 00:11:10;;;;;;;179.30;35.63;;;-3.00;99.90;;;;;;4193049;28;20269;-59
2023/12/31 00:13:11;;;;;;;319.43;49.17;;;-3.00;99.90;;;;;;4193498;28;20265;-55
2023/12/31 00:15:13;;;;;;;280.30;43.83;;;-3.00;99.90;;;;;;4193117;28;20269;-58
2023/12/31 00:17:14;;;;;;;129.87;36.17;;;-2.90;99.90;;;;;;4193431;28;20274;-55
2023/12/31 00:19:15;;;;;;;213.23;36.00;;;-2.90;99.90;;;;;;4193016;28;20542;-58
2023/12/31 00:21:16;;;;;;;266.47;42.27;;;-2.90;99.90;;;;;;4193201;28;20269;-54
2023/12/31 00:23:17;;;;;;;137.07;35.03;;;-2.90;99.90;;;;;;4192059;28;20307;-57
2023/12/31 00:25:19;;;;;;;207.73;39.30;;;-2.90;99.90;;;;;;4193553;28;20318;-56
2023/12/31 00:27:20;;;;;;;158.77;34.60;;;-2.90;99.90;;;;;;4192101;28;20766;-58
2023/12/31 00:29:22;;;;;;;125.63;33.60;;;-2.90;99.90;;;;;;4193375;28;20669;-59
2023/12/31 00:31:23;;;;;;;169.67;36.90;;;-2.80;99.90;;;;;;4192147;28;20269;-53
2023/12/31 00:33:25;;;;;;;123.00;33.90;;;-2.80;99.90;;;;;;4193019;28;20311;-57
2023/12/31 00:35:26;;;;;;;92.00;31.57;;;-2.80;99.90;;;;;;4191322;28;20266;-54
2023/12/31 00:37:27;;;;;;;194.17;38.83;;;-2.70;99.90;;;;;;4193685;28;20269;-56
2023/12/31 00:39:28;;;;;;;92.57;33.20;;;-2.70;99.90;;;;;;4193010;28;20770;-57
2023/12/31 00:41:30;;;;;;;158.00;35.93;;;-2.70;99.90;;;;;;4192557;28;20269;-59
2023/12/31 00:43:31;;;;;;;119.57;33.47;;;-2.70;99.90;;;;;;4192362;28;20257;-57
2023/12/31 00:45:32;;;;;;;90.27;31.03;;;-2.80;99.90;;;;;;4192498;28;20253;-55
2023/12/31 00:47:33;;;;;;;197.33;36.90;;;-2.70;99.90;;;;;;4192617;28;20688;-59
2023/12/31 00:49:34;;;;;;;104.47;33.23;;;-2.70;99.90;;;;;;4192288;28;21286;-56
2023/12/31 00:51:36;;;;;;;105.57;35.30;;;-2.70;99.90;;;;;;4192547;28;20281;-55
2023/12/31 00:53:37;;;;;;;87.07;30.03;;;-2.70;99.90;;;;;;4192331;28;20286;-58
2023/12/31 00:55:38;;;;;;;108.13;35.00;;;-2.70;99.90;;;;;;4193779;28;20657;-55
2023/12/31 00:57:39;;;;;;;133.57;33.53;;;-2.70;99.90;;;;;;4191437;28;20815;-58
2023/12/31 00:59:41;;;;;;;74.90;30.43;;;-2.60;99.90;;;;;;4193634;28;20318;-58
2023/12/31 01:01:42;;;;;;;78.50;29.83;;;-2.60;99.90;;;;;;4191666;28;20826;-53
2023/12/31 01:03:43;;;;;;;94.63;30.63;;;-2.60;99.90;;;;;;4192534;28;20331;-56
2023/12/31 01:05:44;;;;;;;62.87;29.17;;;-2.50;99.90;;;;;;4192723;28;20319;-59
2023/12/31 01:07:45;;;;;;;74.87;33.10;;;-2.50;99.90;;;;;;4192857;28;20289;-58
2023/12/31 01:09:47;;;;;;;131.27;32.90;;;-2.50;99.90;;;;;;4193053;28;20656;-58
2023/12/31 01:11:48;;;;;;;70.17;29.20;;;-2.50;99.90;;;;;;4192560;28;20273;-56
2023/12/31 01:13:49;;;;;;;103.90;33.70;;;-2.40;99.90;;;;;;4193215;28;20802;-56
2023/12/31 01:15:50;;;;;;;91.70;33.03;;;-2.40;99.90;;;;;;4191948;28;20309;-57
2023/12/31 01:17:51;;;;;;;140.03;37.67;;;-2.40;99.90;;;;;;4193315;28;20683;-58
2023/12/31 01:19:53;;;;;;;108.83;35.50;;;-2.40;99.90;;;;;;4191033;28;20672;-57
2023/12/31 01:21:55;;;;;;;97.97;33.73;;;-2.50;99.90;;;;;;4192601;28;20277;-57
2023/12/31 01:23:56;;;;;;;83.43;35.00;;;-2.50;99.90;;;;;;4192347;28;20261;-54
2023/12/31 01:25:57;;;;;;;99.77;35.83;;;-2.50;99.90;;;;;;4192773;28;20815;-58
2023/12/31 01:27:59;;;;;;;130.97;40.57;;;-2.50;99.90;;;;;;4192208;28;20335;-55
2023/12/31 01:30:00;;;;;;;99.10;36.57;;;-2.40;99.90;;;;;;4193401;28;20274;-58
2023/12/31 01:32:01;;;;;;;97.67;38.57;;;-2.40;99.90;;;;;;4191746;28;20327;-56
2023/12/31 01:34:03;;;;;;;116.53;41.40;;;-2.40;99.90;;;;;;4193398;28;20315;-57
2023/12/31 01:36:13;;;;;;;103.60;38.57;;;-2.50;99.90;;;;;;4191922;28;20785;-56
2023/12/31 01:38:14;;;;;;;105.07;40.47;;;-2.40;99.90;;;;;;4175555;28;20786;-58
2023/12/31 01:40:16;;;;;;;90.97;38.50;;;-2.50;99.90;;;;;;4191973;28;20082;-57
2023/12/31 01:42:17;;;;;;;97.57;41.07;;;-2.50;99.90;;;;;;4192840;28;20718;-58
2023/12/31 01:44:18;;;;;;;91.33;39.67;;;-2.50;99.90;;;;;;4191728;28;20303;-59
2023/12/31 01:46:27;;;;;;;122.40;42.60;;;-2.50;99.90;;;;;;4192347;28;20273;-52
2023/12/31 01:48:29;;;;;;;96.67;38.10;;;-2.60;99.90;;;;;;4195466;28;20689;-57
2023/12/31 01:50:30;;;;;;;122.87;37.77;;;-2.50;99.90;;;;;;4194424;28;20277;-58
2023/12/31 01:52:33;;;;;;;107.53;35.50;;;-2.60;99.90;;;;;;4195457;28;20274;-56
2023/12/31 01:54:35;;;;;;;108.43;36.60;;;-2.60;99.90;;;;;;4195378;28;20269;-57
2023/12/31 01:56:39;;;;;;;87.33;34.40;;;-2.60;99.90;;;;;;4196129;28;20261;-56
2023/12/31 01:58:41;;;;;;;116.53;34.77;;;-2.70;99.90;;;;;;4177210;28;20772;-53
2023/12/31 02:00:42;;;;;;;109.73;34.23;;;-2.70;99.90;;;;;;4177985;28;20786;-56
2023/12/31 02:02:47;;;;;;;142.90;36.33;;;-2.70;99.90;;;;;;4194983;28;20627;-57
2023/12/31 02:04:48;;;;;;;86.63;34.33;;;-2.70;99.90;;;;;;4177286;28;20328;-53
2023/12/31 02:06:49;;;;;;;87.30;32.50;;;-2.80;99.90;;;;;;4194086;28;20407;-59
2023/12/31 02:08:51;;;;;;;82.77;33.80;;;-2.80;99.90;;;;;;4194764;28;20273;-56
2023/12/31 02:10:52;;;;;;;86.57;35.37;;;-2.70;99.90;;;;;;4193976;28;20335;-55
2023/12/31 02:12:55;;;;;;;94.77;34.77;;;-2.80;99.90;;;;;;4194894;28;20273;-58
2023/12/31 02:14:56;;;;;;;83.70;33.70;;;-2.70;99.90;;;;;;4194091;28;20253;-58
2023/12/31 02:16:57;;;;;;;86.83;34.77;;;-2.70;99.90;;;;;;4177606;28;20267;-57
2023/12/31 02:18:58;;;;;;;88.17;34.23;;;-2.70;99.90;;;;;;4193903;28;20399;-54
2023/12/31 02:21:00;;;;;;;74.90;33.23;;;-2.70;99.90;;;;;;4195134;28;20816;-58
2023/12/31 02:23:01;;;;;;;71.37;30.83;;;-2.70;99.90;;;;;;4195166;28;20312;-53
2023/12/31 02:25:08;;;;;;;77.90;32.67;;;-2.70;99.90;;;;;;4194653;28;20274;-56
2023/12/31 02:27:09;;;;;;;75.90;32.33;;;-2.70;99.90;;;;;;4194839;28;20294;-55
2023/12/31 02:29:10;;;;;;;78.83;32.03;;;-2.70;99.90;;;;;;4194773;28;20330;-55
2023/12/31 02:31:11;;;;;;;75.60;31.93;;;-2.70;99.90;;;;;;4194727;28;20307;-56
2023/12/31 02:33:13;;;;;;;75.37;30.63;;;-2.70;99.90;;;;;;4194505;28;20265;-57
2023/12/31 02:35:14;;;;;;;74.47;31.87;;;-2.70;99.90;;;;;;4195265;28;20619;-56
2023/12/31 02:37:15;;;;;;;81.87;34.40;;;-2.80;99.90;;;;;;4194143;28;20257;-50
2023/12/31 02:39:16;;;;;;;80.07;32.37;;;-2.80;99.90;;;;;;4194719;28;20277;-58
2023/12/31 02:41:17;;;;;;;76.97;32.30;;;-2.80;99.90;;;;;;4194104;28;20320;-57
2023/12/31 02:43:19;;;;;;;73.57;32.73;;;-2.80;99.90;;;;;;4194141;28;20281;-53
2023/12/31 02:45:20;;;;;;;75.30;33.80;;;-2.80;99.90;;;;;;4194565;28;20753;-55
2023/12/31 02:47:21;;;;;;;81.60;32.50;;;-2.80;99.90;;;;;;4194673;28;20285;-55
2023/12/31 02:49:22;;;;;;;75.37;31.47;;;-2.80;99.90;;;;;;4194755;28;20269;-53
2023/12/31 02:51:24;;;;;;;85.37;35.07;;;-2.80;99.90;;;;;;4193686;28;20602;-56
2023/12/31 02:53:25;;;;;;;73.97;32.00;;;-2.70;99.90;;;;;;4194004;28;20319;-57
2023/12/31 02:55:26;;;;;;;75.90;32.93;;;-2.70;99.90;;;;;;4193876;28;20257;-55
2023/12/31 02:57:27;;;;;;;75.80;31.73;;;-2.70;99.90;;;;;;4194592;28;20339;-57
2023/12/31 02:59:28;;;;;;;78.17;34.20;;;-2.70;99.90;;;;;;4193748;28;20334;-56
2023/12/31 03:01:31;;;;;;;76.23;32.50;;;-2.70;99.90;;;;;;4195275;28;20296;-57
2023/12/31 03:03:33;;;;;;;74.23;31.67;;;-2.70;99.90;;;;;;4193268;28;20644;-54
2023/12/31 03:05:34;;;;;;;67.17;30.73;;;-2.60;99.90;;;;;;4194415;28;20273;-56
2023/12/31 03:07:35;;;;;;;68.37;31.10;;;-2.60;99.90;;;;;;4193505;28;20309;-54
2023/12/31 03:09:36;;;;;;;71.97;31.20;;;-2.60;99.90;;;;;;4194477;28;20323;-56
2023/12/31 03:11:37;;;;;;;73.40;33.00;;;-2.50;99.90;;;;;;4193181;28;20669;-53
2023/12/31 03:13:39;;;;;;;80.80;34.23;;;-2.50;99.90;;;;;;4195071;28;20315;-58
2023/12/31 03:15:40;;;;;;;72.53;32.87;;;-2.50;99.90;;;;;;4193867;28;20323;-53
2023/12/31 03:17:41;;;;;;;69.10;31.93;;;-2.50;99.90;;;;;;4194513;28;20664;-55
2023/12/31 03:19:42;;;;;;;62.20;30.13;;;-2.50;99.90;;;;;;4193607;28;20266;-50
2023/12/31 03:21:43;;;;;;;65.10;30.30;;;-2.50;99.90;;;;;;4194134;28;20331;-58
2023/12/31 03:23:44;;;;;;;75.33;30.73;;;-2.60;99.90;;;;;;4193730;28;20311;-55
2023/12/31 03:25:45;;;;;;;67.17;28.67;;;-2.60;99.90;;;;;;4194027;28;20304;-58
2023/12/31 03:27:47;;;;;;;59.23;29.37;;;-2.60;99.90;;;;;;4194162;28;20289;-53
2023/12/31 03:29:49;;;;;;;63.97;31.47;;;-2.60;99.90;;;;;;4193016;28;20261;-57
2023/12/31 03:31:50;;;;;;;62.97;28.90;;;-2.60;99.90;;;;;;4194154;28;20269;-54
2023/12/31 03:33:51;;;;;;;63.07;29.83;;;-2.50;99.90;;;;;;4192728;28;20673;-58
2023/12/31 03:35:52;;;;;;;56.80;30.13;;;-2.60;99.90;;;;;;4194338;28;20291;-52
2023/12/31 03:37:54;;;;;;;56.47;27.30;;;-2.50;99.90;;;;;;4193169;28;20339;-53
2023/12/31 03:39:55;;;;;;;57.57;27.83;;;-2.60;99.90;;;;;;4193258;28;20274;-54
2023/12/31 03:41:56;;;;;;;58.37;25.80;;;-2.50;99.90;;;;;;4192603;28;20266;-57
2023/12/31 03:43:59;;;;;;;60.50;27.43;;;-2.50;99.90;;;;;;4193892;28;20269;-56
2023/12/31 03:46:00;;;;;;;51.90;27.87;;;-2.50;99.90;;;;;;4193618;28;20338;-55
2023/12/31 03:48:02;;;;;;;56.97;27.23;;;-2.50;99.90;;;;;;4193463;28;20458;-56
2023/12/31 03:50:03;;;;;;;52.37;26.93;;;-2.50;99.90;;;;;;4193599;28;20665;-57
2023/12/31 03:52:05;;;;;;;56.87;27.90;;;-2.50;99.90;;;;;;4193206;28;20669;-55
2023/12/31 03:54:07;;;;;;;58.07;27.97;;;-2.50;99.90;;;;;;4193677;28;20266;-55
2023/12/31 03:56:09;;;;;;;53.20;26.63;;;-2.50;99.90;;;;;;4193656;28;20271;-58
2023/12/31 03:58:10;;;;;;;60.70;29.33;;;-2.50;99.90;;;;;;4194135;28;20306;-55
2023/12/31 04:00:11;;;;;;;52.80;28.07;;;-2.40;99.90;;;;;;4192748;28;20277;-57
2023/12/31 04:02:13;;;;;;;57.90;29.57;;;-2.40;99.90;;;;;;4193290;28;20315;-57
2023/12/31 04:04:14;;;;;;;61.90;27.77;;;-2.50;99.90;;;;;;4192623;28;20265;-56
2023/12/31 04:06:17;;;;;;;61.77;29.33;;;-2.50;99.90;;;;;;4194504;28;20293;-56
2023/12/31 04:08:18;;;;;;;51.30;25.03;;;-2.50;99.90;;;;;;4192641;28;20351;-57
2023/12/31 04:10:20;;;;;;;53.70;26.90;;;-2.40;99.90;;;;;;4193589;28;20733;-56
2023/12/31 04:12:21;;;;;;;49.13;24.70;;;-2.50;99.90;;;;;;4192206;28;20299;-58
2023/12/31 04:14:22;;;;;;;50.43;26.40;;;-2.40;99.90;;;;;;4194226;28;20649;-55
2023/12/31 04:16:23;;;;;;;47.73;25.23;;;-2.40;99.90;;;;;;4192416;28;20269;-58
2023/12/31 04:18:24;;;;;;;48.13;25.23;;;-2.40;99.90;;;;;;4193995;28;20319;-53
2023/12/31 04:20:26;;;;;;;51.63;26.23;;;-2.40;99.90;;;;;;4193168;28;20323;-57
2023/12/31 04:22:28;;;;;;;53.23;26.27;;;-2.40;99.90;;;;;;4193199;28;20804;-58
2023/12/31 04:24:29;;;;;;;50.73;25.93;;;-2.30;99.90;;;;;;4192332;28;20315;-57
2023/12/31 04:26:30;;;;;;;50.70;26.00;;;-2.30;99.90;;;;;;4193276;28;20265;-57
2023/12/31 04:28:31;;;;;;;52.40;26.73;;;-2.30;99.90;;;;;;4192786;28;20301;-55
2023/12/31 04:30:32;;;;;;;44.97;24.97;;;-2.30;99.90;;;;;;4192423;28;20270;-57
2023/12/31 04:32:34;;;;;;;42.50;23.00;;;-2.30;99.90;;;;;;4193928;28;20342;-57
2023/12/31 04:34:35;;;;;;;50.50;25.20;;;-2.30;99.90;;;;;;4192173;28;20307;-57
2023/12/31 04:36:36;;;;;;;51.17;24.43;;;-2.40;99.90;;;;;;4193941;28;20323;-56
2023/12/31 04:38:37;;;;;;;49.80;24.73;;;-2.30;99.90;;;;;;4193263;28;20261;-59
2023/12/31 04:40:38;;;;;;;46.60;24.30;;;-2.30;99.90;;;;;;4193425;28;20315;-57
2023/12/31 04:42:39;;;;;;;44.90;23.20;;;-2.30;99.90;;;;;;4192143;28;20261;-59
2023/12/31 04:44:41;;;;;;;43.63;24.30;;;-2.30;99.90;;;;;;4192648;28;20273;-56
2023/12/31 04:46:42;;;;;;;48.43;23.83;;;-2.30;99.90;;;;;;4192068;28;20273;-56
2023/12/31 04:48:43;;;;;;;41.20;22.93;;;-2.30;99.90;;;;;;4193134;28;20301;-57
2023/12/31 04:50:44;;;;;;;46.27;24.53;;;-2.30;99.90;;;;;;4191313;28;20327;-58
2023/12/31 04:52:45;;;;;;;40.63;21.23;;;-2.30;99.90;;;;;;4192333;28;20331;-57
2023/12/31 04:54:47;;;;;;;41.80;21.77;;;-2.30;99.90;;;;;;4192464;28;20311;-57
2023/12/31 04:56:49;;;;;;;45.27;24.10;;;-2.30;99.90;;;;;;4191840;28;20746;-56
2023/12/31 04:58:51;;;;;;;37.60;23.03;;;-2.40;99.90;;;;;;4192410;28;20657;-57
2023/12/31 05:00:52;;;;;;;40.33;22.47;;;-2.40;99.90;;;;;;4192215;28;20378;-54
2023/12/31 05:02:53;;;;;;;42.50;23.00;;;-2.40;99.90;;;;;;4192170;28;20273;-57
2023/12/31 05:04:55;;;;;;;43.00;22.70;;;-2.40;99.90;;;;;;4192294;28;20814;-57
2023/12/31 05:06:58;;;;;;;39.63;21.70;;;-2.40;99.90;;;;;;4192533;28;20269;-58
2023/12/31 05:08:59;;;;;;;46.00;23.20;;;-2.40;99.90;;;;;;4191416;28;20297;-56
2023/12/31 05:11:01;;;;;;;49.67;26.10;;;-2.40;99.90;;;;;;4193426;28;20697;-58
2023/12/31 05:13:04;;;;;;;42.97;23.30;;;-2.40;99.90;;;;;;4192306;28;20334;-58
2023/12/31 05:15:06;;;;;;;45.40;23.13;;;-2.40;99.90;;;;;;4193324;28;20603;-57
2023/12/31 05:17:07;;;;;;;43.33;22.67;;;-2.40;99.90;;;;;;4191441;28;20315;-58
2023/12/31 05:19:08;;;;;;;42.43;22.97;;;-2.40;99.90;;;;;;4193618;28;20664;-58
2023/12/31 05:21:10;;;;;;;43.27;22.97;;;-2.30;99.90;;;;;;4192430;28;20327;-52
2023/12/31 05:23:11;;;;;;;41.33;21.87;;;-2.40;99.90;;;;;;4195638;28;20338;-59
2023/12/31 05:25:13;;;;;;;44.93;23.13;;;-2.40;99.90;;;;;;4194963;28;20285;-58
2023/12/31 05:27:14;;;;;;;45.73;23.70;;;-2.40;99.90;;;;;;4195754;28;20281;-59
2023/12/31 05:29:15;;;;;;;43.83;23.73;;;-2.40;99.90;;;;;;4195305;28;20859;-57
2023/12/31 05:31:16;;;;;;;50.00;25.47;;;-2.40;99.90;;;;;;4195368;28;20406;-59
2023/12/31 05:33:17;;;;;;;53.47;26.60;;;-2.40;99.90;;;;;;4195661;28;20327;-57
2023/12/31 05:35:19;;;;;;;63.73;29.07;;;-2.50;99.90;;;;;;4195383;28;20676;-55
2023/12/31 05:37:20;;;;;;;51.10;26.93;;;-2.50;99.90;;;;;;4195980;28;20319;-56
2023/12/31 05:39:21;;;;;;;54.63;27.27;;;-2.50;99.90;;;;;;4194684;28;20265;-56
2023/12/31 05:41:22;;;;;;;45.97;24.83;;;-2.50;99.90;;;;;;4195717;28;20274;-56
2023/12/31 05:43:23;;;;;;;47.63;25.33;;;-2.60;99.90;;;;;;4195426;28;20254;-56
2023/12/31 05:45:24;;;;;;;46.10;23.40;;;-2.60;99.90;;;;;;4195967;28;20672;-57
2023/12/31 05:47:26;;;;;;;45.40;23.80;;;-2.70;99.90;;;;;;4194998;28;20339;-54
2023/12/31 05:49:27;;;;;;;49.00;26.83;;;-2.70;99.90;;;;;;4195671;28;20370;-56
2023/12/31 05:51:28;;;;;;;49.43;25.17;;;-2.80;99.90;;;;;;4195343;28;20270;-54
2023/12/31 05:53:29;;;;;;;47.13;26.03;;;-2.80;99.90;;;;;;4195956;28;20249;-55
2023/12/31 05:55:31;;;;;;;44.53;24.73;;;-2.90;99.90;;;;;;4195374;28;20257;-57
2023/12/31 05:57:32;;;;;;;44.07;24.40;;;-3.00;99.90;;;;;;4195361;28;20315;-58
2023/12/31 05:59:33;;;;;;;45.57;24.40;;;-3.10;99.90;;;;;;4195557;28;20708;-57
2023/12/31 06:01:34;;;;;;;43.40;22.60;;;-3.10;99.90;;;;;;4194223;28;20281;-56
2023/12/31 06:03:36;;;;;;;49.00;25.20;;;-3.10;99.90;;;;;;4194732;28;20281;-57
2023/12/31 06:05:37;;;;;;;50.13;22.97;;;-3.10;99.90;;;;;;4195229;28;20307;-56
2023/12/31 06:07:38;;;;;;;42.27;23.67;;;-3.10;99.90;;;;;;4195662;28;20741;-54
2023/12/31 06:09:39;;;;;;;44.07;23.33;;;-3.20;99.90;;;;;;4195025;28;20289;-57
2023/12/31 06:11:40;;;;;;;42.53;22.03;;;-3.10;99.90;;;;;;4195579;28;20778;-56
2023/12/31 06:13:41;;;;;;;44.47;23.50;;;-3.10;99.90;;;;;;4194380;28;20320;-55
2023/12/31 06:15:43;;;;;;;44.10;23.13;;;-3.10;99.90;;;;;;4195908;28;20274;-55
2023/12/31 06:17:44;;;;;;;44.30;23.97;;;-3.10;99.90;;;;;;4194222;28;20273;-57
2023/12/31 06:19:45;;;;;;;40.37;22.53;;;-3.10;99.90;;;;;;4195694;28;20342;-58
2023/12/31 06:21:46;;;;;;;49.67;25.53;;;-2.90;99.90;;;;;;4194136;28;20296;-57
2023/12/31 06:23:47;;;;;;;47.27;24.03;;;-2.90;99.90;;;;;;4194594;28;20327;-58
2023/12/31 06:25:49;;;;;;;51.97;25.43;;;-2.80;99.90;;;;;;4194722;28;20269;-54
2023/12/31 06:27:50;;;;;;;53.30;25.73;;;-2.80;99.90;;;;;;4194987;28;20672;-58
2023/12/31 06:29:52;;;;;;;55.90;26.00;;;-2.70;99.90;;;;;;4195061;28;20270;-56
2023/12/31 06:31:53;;;;;;;53.30;24.73;;;-2.70;99.90;;;;;;4194468;28;20657;-57
2023/12/31 06:33:54;;;;;;;47.37;24.60;;;-2.60;99.90;;;;;;4194604;28;20274;-57
2023/12/31 06:35:55;;;;;;;58.47;24.73;;;-2.60;99.90;;;;;;4194239;28;20270;-58
2023/12/31 06:37:56;;;;;;;56.13;25.77;;;-2.50;99.90;;;;;;4195014;28;20285;-57
2023/12/31 06:39:58;;;;;;;58.43;26.23;;;-2.50;99.90;;;;;;4193462;28;20273;-56
2023/12/31 06:41:59;;;;;;;56.40;26.80;;;-2.40;99.90;;;;;;4194791;28;20278;-53
2023/12/31 06:44:01;;;;;;;57.03;26.10;;;-2.40;99.90;;;;;;4194376;28;20265;-57
2023/12/31 06:46:03;;;;;;;50.40;26.20;;;-2.30;99.90;;;;;;4195664;28;20341;-57
2023/12/31 06:48:05;;;;;;;56.33;26.07;;;-2.20;99.90;;;;;;4193288;28;20270;-55
2023/12/31 06:50:08;;;;;;;59.97;26.43;;;-2.20;99.90;;;;;;4195049;28;20818;-59
2023/12/31 06:52:09;;;;;;;59.80;28.43;;;-2.20;99.90;;;;;;4193867;28;20688;-56
2023/12/31 06:54:10;;;;;;;55.30;27.47;;;-2.20;99.90;;;;;;4195361;28;20314;-57
2023/12/31 06:56:11;;;;;;;56.87;25.07;;;-2.10;99.90;;;;;;4193637;28;20303;-57
2023/12/31 06:58:14;;;;;;;47.43;24.43;;;-2.10;99.90;;;;;;4194297;28;20270;-55
2023/12/31 07:00:16;;;;;;;53.00;25.00;;;-2.00;99.90;;;;;;4194240;28;20311;-57
2023/12/31 07:02:17;;;;;;;49.80;25.33;;;-1.90;99.90;;;;;;4194167;28;20304;-55
2023/12/31 07:04:19;;;;;;;54.40;27.33;;;-1.80;99.90;;;;;;4194472;28;20965;-59
2023/12/31 07:06:21;;;;;;;56.13;27.07;;;-1.80;99.90;;;;;;4193531;28;20315;-57
2023/12/31 07:08:22;;;;;;;50.57;24.53;;;-1.80;99.90;;;;;;4194367;28;20289;-57
2023/12/31 07:10:23;;;;;;;54.33;26.97;;;-1.80;99.90;;;;;;4193529;28;20311;-57
2023/12/31 07:12:24;;;;;;;50.53;25.77;;;-1.60;99.90;;;;;;4194870;28;20265;-53
2023/12/31 07:14:26;;;;;;;51.80;25.87;;;-1.40;99.90;;;;;;4193747;28;20747;-56
2023/12/31 07:16:28;;;;;;;51.13;26.23;;;-1.10;99.90;;;;;;4194880;28;20265;-55
2023/12/31 07:18:29;;;;;;;56.77;28.73;;;-0.70;99.90;;;;;;4193111;28;20273;-57
2023/12/31 07:20:31;;;;;;;53.03;26.10;;;-0.60;99.90;;;;;;4194142;28;20311;-56
2023/12/31 07:22:33;;;;;;;54.53;27.30;;;-0.50;99.90;;;;;;4193818;28;20261;-56
2023/12/31 07:24:34;;;;;;;50.53;25.83;;;-0.40;99.90;;;;;;4194207;28;20331;-57
2023/12/31 07:26:35;;;;;;;47.37;25.47;;;-0.10;99.90;;;;;;4192748;28;20664;-56
2023/12/31 07:28:36;;;;;;;44.97;24.60;;;0.20;99.90;;;;;;4193505;28;20323;-58
2023/12/31 07:30:39;;;;;;;48.87;25.97;;;0.30;99.90;;;;;;4192912;28;20269;-55
2023/12/31 07:32:40;;;;;;;50.60;25.60;;;0.80;99.90;;;;;;4194178;28;20730;-58
2023/12/31 07:34:42;;;;;;;52.63;27.07;;;1.30;99.90;;;;;;4193825;28;20721;-58
2023/12/31 07:36:43;;;;;;;45.63;24.60;;;1.70;99.90;;;;;;4193753;28;20258;-59
2023/12/31 07:38:44;;;;;;;42.47;25.40;;;1.90;99.90;;;;;;4193803;28;20698;-58
2023/12/31 07:40:45;;;;;;;44.93;26.37;;;2.00;99.90;;;;;;4192904;28;20776;-59
2023/12/31 07:42:47;;;;;;;43.37;25.83;;;2.10;99.90;;;;;;4194386;28;20253;-58
2023/12/31 07:44:48;;;;;;;39.93;23.50;;;2.20;99.90;;;;;;4191933;28;20669;-57
2023/12/31 07:46:50;;;;;;;43.67;25.57;;;2.40;99.90;;;;;;4194425;28;20082;-56
2023/12/31 07:48:52;;;;;;;40.97;25.00;;;2.40;99.90;;;;;;4192324;28;20109;-59
2023/12/31 07:50:53;;;;;;;38.30;23.03;;;2.40;99.90;;;;;;4194409;28;20021;-59
2023/12/31 07:52:54;;;;;;;39.53;23.67;;;2.50;99.90;;;;;;4192609;28;20473;-59
2023/12/31 07:54:56;;;;;;;41.03;23.93;;;2.60;99.90;;;;;;4193394;28;20114;-59
2023/12/31 07:56:58;;;;;;;33.40;21.70;;;2.60;99.90;;;;;;4192783;28;20087;-56
2023/12/31 07:58:59;;;;;;;32.03;20.60;;;2.60;99.90;;;;;;4193293;28;20550;-55
2023/12/31 08:01:02;;;;;;;35.23;21.50;;;2.70;99.90;;;;;;4192556;28;20045;-57
2023/12/31 08:03:03;;;;;;;29.80;20.67;;;2.80;99.90;;;;;;4193105;28;20475;-57
2023/12/31 08:05:05;;;;;;;29.20;19.80;;;3.10;99.90;;;;;;4192767;28;20037;-57
2023/12/31 08:07:07;;;;;;;29.80;19.77;;;3.30;99.90;;;;;;4193687;28;20468;-56
2023/12/31 08:09:10;;;;;;;32.87;19.83;;;3.50;99.90;;;;;;4193091;28;20101;-59
2023/12/31 08:11:12;;;;;;;30.87;19.97;;;3.50;99.90;;;;;;4192521;28;20478;-56
2023/12/31 08:13:13;;;;;;;30.43;19.73;;;3.40;99.90;;;;;;4193725;28;20435;-58
2023/12/31 08:15:15;;;;;;;30.23;19.10;;;3.30;99.90;;;;;;4192036;28;20106;-56
2023/12/31 08:17:16;;;;;;;30.23;19.77;;;3.20;99.90;;;;;;4193466;28;20086;-57
2023/12/31 08:19:18;;;;;;;32.50;21.37;;;3.00;99.90;;;;;;4192201;28;20093;-58
2023/12/31 08:21:19;;;;;;;32.07;21.60;;;2.80;99.90;;;;;;4193592;28;20036;-57
2023/12/31 08:23:20;;;;;;;29.70;19.80;;;2.50;99.90;;;;;;4192237;28;20040;-57
2023/12/31 08:25:22;;;;;;;31.20;20.67;;;2.20;99.90;;;;;;4192458;28;20040;-56
2023/12/31 08:27:23;;;;;;;33.10;20.43;;;2.20;99.90;;;;;;4186018;28;20090;-57
2023/12/31 08:29:24;;;;;;;33.20;22.07;;;2.20;99.90;;;;;;4193804;28;20098;-58
2023/12/31 08:31:26;;;;;;;30.53;19.80;;;2.20;99.90;;;;;;4192036;28;20040;-58
2023/12/31 08:33:27;;;;;;;33.10;20.63;;;2.00;99.90;;;;;;4193336;28;20106;-58
2023/12/31 08:35:28;;;;;;;29.77;19.87;;;1.90;99.90;;;;;;4191817;28;20645;-61
2023/12/31 08:37:29;;;;;;;30.27;19.53;;;1.80;99.90;;;;;;4192556;28;20351;-59
2023/12/31 08:39:31;;;;;;;33.53;21.77;;;1.70;99.90;;;;;;4191777;28;20315;-57
2023/12/31 08:41:32;;;;;;;34.17;21.70;;;1.80;99.90;;;;;;4192452;28;20285;-55
2023/12/31 08:43:33;;;;;;;35.50;20.97;;;1.90;99.90;;;;;;4193042;28;20765;-58
2023/12/31 08:45:39;;;;;;;36.67;21.37;;;1.90;99.90;;;;;;4191813;28;20350;-60
2023/12/31 08:47:40;;;;;;;33.93;20.60;;;1.90;99.90;;;;;;4193026;28;20335;-62
2023/12/31 08:49:41;;;;;;;38.10;22.10;;;1.90;99.90;;;;;;4192695;28;20285;-60
2023/12/31 08:51:42;;;;;;;35.83;21.27;;;2.10;99.90;;;;;;4192242;28;20281;-59
2023/12/31 08:53:43;;;;;;;36.30;21.23;;;2.10;99.90;;;;;;4191238;28;20273;-60
2023/12/31 08:55:45;;;;;;;34.10;21.50;;;2.10;99.90;;;;;;4192575;28;20669;-60
2023/12/31 08:57:49;;;;;;;38.47;22.50;;;2.20;99.90;;;;;;4195410;28;20281;-60
2023/12/31 08:59:50;;;;;;;35.87;22.30;;;2.30;99.90;;;;;;4195075;28;20354;-60
2023/12/31 09:01:52;;;;;;;36.73;23.37;;;2.40;99.90;;;;;;4195742;28;20343;-59
2023/12/31 09:03:53;;;;;;;40.00;23.73;;;2.40;99.90;;;;;;4196549;28;20277;-60
2023/12/31 09:05:54;;;;;;;37.93;24.03;;;2.50;99.90;;;;;;4194033;28;20764;-58
2023/12/31 09:07:55;;;;;;;36.60;22.97;;;2.50;99.90;;;;;;4178510;28;20853;-60
2023/12/31 09:09:56;;;;;;;37.80;24.00;;;2.60;99.90;;;;;;4194788;28;20331;-56
2023/12/31 09:11:58;;;;;;;37.53;23.50;;;2.60;99.90;;;;;;4195058;28;20281;-61
2023/12/31 09:13:59;;;;;;;39.10;23.60;;;2.70;99.90;;;;;;4195965;28;20386;-64
2023/12/31 09:16:00;;;;;;;34.37;20.27;;;2.70;99.90;;;;;;4195596;28;20426;-60
2023/12/31 09:18:02;;;;;;;33.43;20.93;;;2.50;99.90;;;;;;4196443;28;20699;-61
2023/12/31 09:20:08;;;;;;;35.20;20.47;;;2.40;99.90;;;;;;4195511;28;20265;-61
2023/12/31 09:22:10;;;;;;;33.77;20.33;;;2.50;99.90;;;;;;4195392;28;20367;-61
2023/12/31 09:24:11;;;;;;;29.47;18.77;;;2.60;99.90;;;;;;4195512;28;20318;-62
2023/12/31 09:26:13;;;;;;;30.57;18.33;;;2.60;99.90;;;;;;4196002;28;20327;-62
2023/12/31 09:28:14;;;;;;;27.80;17.50;;;2.60;99.90;;;;;;4195173;28;20258;-61
2023/12/31 09:30:15;;;;;;;28.13;17.17;;;2.40;99.90;;;;;;4196509;28;20289;-62
2023/12/31 09:32:16;;;;;;;28.53;17.70;;;2.20;99.90;;;;;;4194734;28;20319;-63
2023/12/31 09:34:18;;;;;;;28.97;18.83;;;2.10;99.90;;;;;;4194935;28;20684;-61
2023/12/31 09:36:19;;;;;;;28.43;17.20;;;2.10;99.90;;;;;;4194229;28;20273;-62
2023/12/31 09:38:20;;;;;;;30.30;18.47;;;2.10;99.90;;;;;;4196216;28;20318;-61
2023/12/31 09:40:21;;;;;;;27.33;16.77;;;2.10;99.90;;;;;;4195673;28;20335;-60
2023/12/31 09:42:34;;;;;;;27.60;17.47;;;2.10;99.90;;;;;;4195095;28;20319;-61
2023/12/31 09:44:35;;;;;;;25.87;16.83;;;2.10;99.90;;;;;;4194579;28;20672;-62
2023/12/31 09:46:39;;;;;;;24.23;15.80;;;2.10;99.90;;;;;;4176776;28;20392;-62
2023/12/31 09:48:40;;;;;;;29.47;17.80;;;2.10;99.90;;;;;;4193831;28;20426;-60
2023/12/31 09:50:43;;;;;;;30.33;18.30;;;2.10;99.90;;;;;;4193552;28;20281;-60
2023/12/31 09:52:46;;;;;;;29.37;17.47;;;2.20;99.90;;;;;;4193176;28;20769;-58
2023/12/31 09:54:48;;;;;;;28.77;16.83;;;2.20;99.90;;;;;;4177842;28;20262;-61
2023/12/31 09:56:52;;;;;;;31.97;18.63;;;2.30;99.90;;;;;;4195243;28;20331;-62
2023/12/31 09:58:54;;;;;;;29.40;18.63;;;2.40;99.90;;;;;;4194464;28;20335;-59
2023/12/31 10:00:55;;;;;;;31.77;18.63;;;2.30;99.90;;;;;;4195189;28;20335;-59
2023/12/31 10:02:56;;;;;;;32.60;19.70;;;2.30;99.90;;;;;;4194338;28;20685;-60
2023/12/31 10:04:58;;;;;;;33.03;19.20;;;2.30;99.90;;;;;;4176875;28;20274;-60
2023/12/31 10:07:00;;;;;;;30.80;19.73;;;2.40;99.90;;;;;;4194487;28;20277;-58
2023/12/31 10:09:01;;;;;;;35.03;20.17;;;2.50;99.90;;;;;;4194832;28;20331;-60
2023/12/31 10:11:04;;;;;;;33.73;19.93;;;2.60;99.90;;;;;;4194198;28;20249;-60
2023/12/31 10:13:13;;;;;;;34.80;20.20;;;2.60;99.90;;;;;;4194320;28;20269;-58
2023/12/31 10:15:14;;;;;;;38.10;21.53;;;2.60;99.90;;;;;;4193560;28;20269;-58
2023/12/31 10:17:15;;;;;;;38.53;21.33;;;2.60;99.90;;;;;;4194614;28;20769;-62